Terminal Aerodrome Forecast
Issued by NWS Lake Charles, LA

Home | Current Version | Previous Version | Text Only | Print | Product List | Glossary On
Versions: 1 2 3 4 5 6 7 8 9 10 11 12 13 14 15 16
070
FTUS44 KLCH 251720
TAFLCH
TAF
KLCH 251720Z 2518/2618 17014G22KT P6SM SCT025 BKN035
      TEMPO 2518/2522 BKN025 BKN035
     FM260100 17010KT P6SM SCT035
     FM260600 16008KT P6SM BKN025
      TEMPO 2610/2614 OVC008
     FM261500 17010KT P6SM VCSH BKN025=

USA.gov is the U.S. government's official web portal to all federal, state and local government web resources and services.